sensor_id;sensor_type;location;lat;lon;timestamp;P1;durP1;ratioP1;P2;durP2;ratioP2
54263;SDS011;40178;53.042;6.406;2023-05-08T00:00:56;12.10;;;9.20;;
54263;SDS011;40178;53.042;6.406;2023-05-08T00:03:23;12.25;;;8.82;;
54263;SDS011;40178;53.042;6.406;2023-05-08T00:05:48;12.63;;;8.73;;
54263;SDS011;40178;53.042;6.406;2023-05-08T00:08:14;12.38;;;8.85;;
54263;SDS011;40178;53.042;6.406;2023-05-08T00:10:40;13.90;;;9.98;;
54263;SDS011;40178;53.042;6.406;2023-05-08T00:13:05;14.80;;;10.07;;
54263;SDS011;40178;53.042;6.406;2023-05-08T00:15:31;14.05;;;9.48;;
54263;SDS011;40178;53.042;6.406;2023-05-08T00:17:56;13.93;;;9.27;;
54263;SDS011;40178;53.042;6.406;2023-05-08T00:20:22;13.25;;;9.55;;
54263;SDS011;40178;53.042;6.406;2023-05-08T00:22:48;12.95;;;9.38;;
54263;SDS011;40178;53.042;6.406;2023-05-08T00:25:13;13.07;;;9.38;;
54263;SDS011;40178;53.042;6.406;2023-05-08T00:27:39;14.68;;;10.15;;
54263;SDS011;40178;53.042;6.406;2023-05-08T00:30:06;13.15;;;9.25;;
54263;SDS011;40178;53.042;6.406;2023-05-08T00:32:32;14.13;;;10.00;;
54263;SDS011;40178;53.042;6.406;2023-05-08T00:34:57;13.35;;;9.60;;
54263;SDS011;40178;53.042;6.406;2023-05-08T00:37:23;13.27;;;9.45;;
54263;SDS011;40178;53.042;6.406;2023-05-08T00:39:49;12.60;;;9.77;;
54263;SDS011;40178;53.042;6.406;2023-05-08T00:42:14;14.23;;;10.65;;
54263;SDS011;40178;53.042;6.406;2023-05-08T00:44:40;14.40;;;10.00;;
54263;SDS011;40178;53.042;6.406;2023-05-08T00:47:06;12.88;;;9.55;;
54263;SDS011;40178;53.042;6.406;2023-05-08T00:49:33;13.35;;;9.35;;
54263;SDS011;40178;53.042;6.406;2023-05-08T00:52:00;13.55;;;9.82;;
54263;SDS011;40178;53.042;6.406;2023-05-08T00:54:28;14.23;;;10.13;;
54263;SDS011;40178;53.042;6.406;2023-05-08T00:56:55;14.15;;;9.95;;
54263;SDS011;40178;53.042;6.406;2023-05-08T00:59:20;17.73;;;11.80;;
54263;SDS011;40178;53.042;6.406;2023-05-08T01:01:47;16.88;;;11.48;;
54263;SDS011;40178;53.042;6.406;2023-05-08T01:04:14;15.15;;;10.57;;
54263;SDS011;40178;53.042;6.406;2023-05-08T01:06:43;14.50;;;10.52;;
54263;SDS011;40178;53.042;6.406;2023-05-08T01:09:09;14.52;;;10.90;;
54263;SDS011;40178;53.042;6.406;2023-05-08T01:11:49;17.13;;;10.93;;
54263;SDS011;40178;53.042;6.406;2023-05-08T01:14:30;17.80;;;11.73;;
54263;SDS011;40178;53.042;6.406;2023-05-08T01:17:13;16.17;;;11.18;;
54263;SDS011;40178;53.042;6.406;2023-05-08T01:22:53;16.45;;;11.43;;
54263;SDS011;40178;53.042;6.406;2023-05-08T01:33:52;15.55;;;10.18;;
54263;SDS011;40178;53.042;6.406;2023-05-08T01:36:36;15.00;;;11.02;;
54263;SDS011;40178;53.042;6.406;2023-05-08T01:39:17;15.10;;;10.88;;
54263;SDS011;40178;53.042;6.406;2023-05-08T01:41:48;14.65;;;10.65;;
54263;SDS011;40178;53.042;6.406;2023-05-08T01:44:23;15.63;;;10.45;;
54263;SDS011;40178;53.042;6.406;2023-05-08T01:47:04;17.30;;;11.73;;
54263;SDS011;40178;53.042;6.406;2023-05-08T01:49:36;15.10;;;10.60;;
54263;SDS011;40178;53.042;6.406;2023-05-08T01:52:30;15.90;;;11.32;;
54263;SDS011;40178;53.042;6.406;2023-05-08T01:55:09;13.65;;;9.77;;
54263;SDS011;40178;53.042;6.406;2023-05-08T01:57:39;14.35;;;10.65;;
54263;SDS011;40178;53.042;6.406;2023-05-08T02:00:09;14.85;;;11.23;;
54263;SDS011;40178;53.042;6.406;2023-05-08T02:02:35;15.10;;;10.50;;
54263;SDS011;40178;53.042;6.406;2023-05-08T02:05:02;15.50;;;11.35;;
54263;SDS011;40178;53.042;6.406;2023-05-08T02:07:30;15.55;;;11.23;;
54263;SDS011;40178;53.042;6.406;2023-05-08T02:09:59;15.50;;;11.10;;
54263;SDS011;40178;53.042;6.406;2023-05-08T02:12:27;15.18;;;11.27;;
54263;SDS011;40178;53.042;6.406;2023-05-08T02:14:55;16.48;;;10.95;;
54263;SDS011;40178;53.042;6.406;2023-05-08T02:17:21;15.40;;;10.68;;
54263;SDS011;40178;53.042;6.406;2023-05-08T02:19:48;17.65;;;12.30;;
54263;SDS011;40178;53.042;6.406;2023-05-08T02:22:15;14.52;;;10.07;;
54263;SDS011;40178;53.042;6.406;2023-05-08T02:24:43;17.80;;;12.30;;
54263;SDS011;40178;53.042;6.406;2023-05-08T02:27:10;17.70;;;11.07;;
54263;SDS011;40178;53.042;6.406;2023-05-08T02:29:37;15.80;;;11.55;;
54263;SDS011;40178;53.042;6.406;2023-05-08T02:32:03;16.88;;;11.60;;
54263;SDS011;40178;53.042;6.406;2023-05-08T02:34:30;16.05;;;11.57;;
54263;SDS011;40178;53.042;6.406;2023-05-08T02:36:56;15.70;;;10.85;;
54263;SDS011;40178;53.042;6.406;2023-05-08T02:39:27;15.25;;;11.05;;
54263;SDS011;40178;53.042;6.406;2023-05-08T02:41:55;16.35;;;12.02;;
54263;SDS011;40178;53.042;6.406;2023-05-08T02:44:21;17.02;;;11.63;;
54263;SDS011;40178;53.042;6.406;2023-05-08T02:49:20;15.52;;;10.68;;
54263;SDS011;40178;53.042;6.406;2023-05-08T02:51:56;16.55;;;10.80;;
54263;SDS011;40178;53.042;6.406;2023-05-08T02:54:37;16.13;;;11.10;;
54263;SDS011;40178;53.042;6.406;2023-05-08T03:00:17;14.60;;;10.63;;
54263;SDS011;40178;53.042;6.406;2023-05-08T03:02:55;16.58;;;11.82;;
54263;SDS011;40178;53.042;6.406;2023-05-08T03:05:31;17.45;;;12.45;;
54263;SDS011;40178;53.042;6.406;2023-05-08T03:07:59;17.00;;;11.77;;
54263;SDS011;40178;53.042;6.406;2023-05-08T03:10:30;14.93;;;10.73;;
54263;SDS011;40178;53.042;6.406;2023-05-08T03:12:58;17.48;;;12.25;;
54263;SDS011;40178;53.042;6.406;2023-05-08T03:15:35;15.45;;;11.13;;
54263;SDS011;40178;53.042;6.406;2023-05-08T03:18:06;17.20;;;12.25;;
54263;SDS011;40178;53.042;6.406;2023-05-08T03:20:39;18.85;;;12.10;;
54263;SDS011;40178;53.042;6.406;2023-05-08T03:23:08;16.65;;;11.80;;
54263;SDS011;40178;53.042;6.406;2023-05-08T03:25:35;18.15;;;11.18;;
54263;SDS011;40178;53.042;6.406;2023-05-08T03:28:04;16.80;;;11.50;;
54263;SDS011;40178;53.042;6.406;2023-05-08T03:30:30;16.33;;;10.82;;
54263;SDS011;40178;53.042;6.406;2023-05-08T03:33:00;16.90;;;10.82;;
54263;SDS011;40178;53.042;6.406;2023-05-08T03:35:33;18.00;;;11.70;;
54263;SDS011;40178;53.042;6.406;2023-05-08T03:38:01;18.02;;;12.23;;
54263;SDS011;40178;53.042;6.406;2023-05-08T03:40:27;16.02;;;10.45;;
54263;SDS011;40178;53.042;6.406;2023-05-08T03:42:54;15.57;;;10.82;;
54263;SDS011;40178;53.042;6.406;2023-05-08T03:45:20;16.40;;;10.95;;
54263;SDS011;40178;53.042;6.406;2023-05-08T03:47:47;18.25;;;12.13;;
54263;SDS011;40178;53.042;6.406;2023-05-08T03:50:14;17.92;;;11.63;;
54263;SDS011;40178;53.042;6.406;2023-05-08T03:52:41;17.23;;;11.48;;
54263;SDS011;40178;53.042;6.406;2023-05-08T03:55:07;15.98;;;11.40;;
54263;SDS011;40178;53.042;6.406;2023-05-08T03:57:35;18.45;;;12.05;;
54263;SDS011;40178;53.042;6.406;2023-05-08T04:00:18;16.98;;;11.90;;
54263;SDS011;40178;53.042;6.406;2023-05-08T04:02:56;18.67;;;11.35;;
54263;SDS011;40178;53.042;6.406;2023-05-08T04:05:37;18.42;;;11.90;;
54263;SDS011;40178;53.042;6.406;2023-05-08T04:08:27;18.05;;;12.27;;
54263;SDS011;40178;53.042;6.406;2023-05-08T04:13:35;17.55;;;11.90;;
54263;SDS011;40178;53.042;6.406;2023-05-08T04:16:16;17.83;;;11.32;;
54263;SDS011;40178;53.042;6.406;2023-05-08T04:18:48;15.73;;;11.15;;
54263;SDS011;40178;53.042;6.406;2023-05-08T04:21:19;16.48;;;10.77;;
54263;SDS011;40178;53.042;6.406;2023-05-08T04:23:49;16.92;;;11.75;;
54263;SDS011;40178;53.042;6.406;2023-05-08T04:26:16;17.15;;;11.52;;
54263;SDS011;40178;53.042;6.406;2023-05-08T04:28:43;15.52;;;10.52;;
54263;SDS011;40178;53.042;6.406;2023-05-08T04:31:10;15.43;;;10.55;;
54263;SDS011;40178;53.042;6.406;2023-05-08T04:33:39;16.75;;;11.30;;
54263;SDS011;40178;53.042;6.406;2023-05-08T04:36:09;16.60;;;10.82;;
54263;SDS011;40178;53.042;6.406;2023-05-08T04:38:36;17.00;;;11.18;;
54263;SDS011;40178;53.042;6.406;2023-05-08T04:41:02;15.35;;;10.43;;
54263;SDS011;40178;53.042;6.406;2023-05-08T04:43:27;17.70;;;12.48;;
54263;SDS011;40178;53.042;6.406;2023-05-08T04:45:53;16.23;;;11.30;;
54263;SDS011;40178;53.042;6.406;2023-05-08T04:48:18;18.40;;;11.40;;
54263;SDS011;40178;53.042;6.406;2023-05-08T04:50:44;18.60;;;11.15;;
54263;SDS011;40178;53.042;6.406;2023-05-08T04:53:10;17.52;;;11.95;;
54263;SDS011;40178;53.042;6.406;2023-05-08T04:55:35;16.38;;;11.15;;
54263;SDS011;40178;53.042;6.406;2023-05-08T04:58:01;15.50;;;10.70;;
54263;SDS011;40178;53.042;6.406;2023-05-08T05:00:26;17.42;;;10.88;;
54263;SDS011;40178;53.042;6.406;2023-05-08T05:02:52;16.13;;;11.63;;
54263;SDS011;40178;53.042;6.406;2023-05-08T05:05:18;15.80;;;10.98;;
54263;SDS011;40178;53.042;6.406;2023-05-08T05:07:43;17.45;;;11.07;;
54263;SDS011;40178;53.042;6.406;2023-05-08T05:10:09;16.45;;;10.68;;
54263;SDS011;40178;53.042;6.406;2023-05-08T05:12:34;14.77;;;10.32;;
54263;SDS011;40178;53.042;6.406;2023-05-08T05:15:01;14.93;;;10.02;;
54263;SDS011;40178;53.042;6.406;2023-05-08T05:17:27;15.70;;;10.15;;
54263;SDS011;40178;53.042;6.406;2023-05-08T05:19:55;13.80;;;9.93;;
54263;SDS011;40178;53.042;6.406;2023-05-08T05:22:21;16.65;;;10.80;;
54263;SDS011;40178;53.042;6.406;2023-05-08T05:24:47;15.32;;;10.27;;
54263;SDS011;40178;53.042;6.406;2023-05-08T05:27:13;12.63;;;9.40;;
54263;SDS011;40178;53.042;6.406;2023-05-08T05:29:38;15.27;;;10.05;;
54263;SDS011;40178;53.042;6.406;2023-05-08T05:32:04;13.68;;;9.45;;
54263;SDS011;40178;53.042;6.406;2023-05-08T05:34:33;13.13;;;9.25;;
54263;SDS011;40178;53.042;6.406;2023-05-08T05:36:58;15.00;;;9.77;;
54263;SDS011;40178;53.042;6.406;2023-05-08T05:39:24;13.73;;;9.32;;
54263;SDS011;40178;53.042;6.406;2023-05-08T05:41:50;13.63;;;9.50;;
54263;SDS011;40178;53.042;6.406;2023-05-08T05:44:15;13.05;;;8.95;;
54263;SDS011;40178;53.042;6.406;2023-05-08T05:46:41;13.50;;;8.73;;
54263;SDS011;40178;53.042;6.406;2023-05-08T05:49:07;11.82;;;8.50;;
54263;SDS011;40178;53.042;6.406;2023-05-08T05:51:33;12.50;;;8.35;;
54263;SDS011;40178;53.042;6.406;2023-05-08T05:53:58;12.98;;;8.93;;
54263;SDS011;40178;53.042;6.406;2023-05-08T05:56:24;12.50;;;8.68;;
54263;SDS011;40178;53.042;6.406;2023-05-08T05:58:50;13.60;;;9.50;;
54263;SDS011;40178;53.042;6.406;2023-05-08T06:01:15;13.38;;;8.93;;
54263;SDS011;40178;53.042;6.406;2023-05-08T06:03:41;11.00;;;8.02;;
54263;SDS011;40178;53.042;6.406;2023-05-08T06:06:07;12.18;;;8.65;;
54263;SDS011;40178;53.042;6.406;2023-05-08T06:08:34;11.55;;;7.95;;
54263;SDS011;40178;53.042;6.406;2023-05-08T06:10:59;12.00;;;8.43;;
54263;SDS011;40178;53.042;6.406;2023-05-08T06:13:25;11.25;;;7.88;;
54263;SDS011;40178;53.042;6.406;2023-05-08T06:15:52;12.02;;;8.40;;
54263;SDS011;40178;53.042;6.406;2023-05-08T06:18:20;13.82;;;8.38;;
54263;SDS011;40178;53.042;6.406;2023-05-08T06:20:46;12.23;;;8.70;;
54263;SDS011;40178;53.042;6.406;2023-05-08T06:23:11;10.93;;;7.95;;
54263;SDS011;40178;53.042;6.406;2023-05-08T06:25:37;11.68;;;8.75;;
54263;SDS011;40178;53.042;6.406;2023-05-08T06:28:03;12.68;;;8.48;;
54263;SDS011;40178;53.042;6.406;2023-05-08T06:30:30;13.07;;;8.45;;
54263;SDS011;40178;53.042;6.406;2023-05-08T06:32:56;12.77;;;9.00;;
54263;SDS011;40178;53.042;6.406;2023-05-08T06:35:21;10.95;;;8.60;;
54263;SDS011;40178;53.042;6.406;2023-05-08T06:37:47;11.23;;;8.38;;
54263;SDS011;40178;53.042;6.406;2023-05-08T06:40:13;11.48;;;8.10;;
54263;SDS011;40178;53.042;6.406;2023-05-08T06:42:38;13.13;;;8.68;;
54263;SDS011;40178;53.042;6.406;2023-05-08T06:45:05;11.20;;;7.50;;
54263;SDS011;40178;53.042;6.406;2023-05-08T06:47:31;12.30;;;8.13;;
54263;SDS011;40178;53.042;6.406;2023-05-08T06:49:57;12.73;;;8.40;;
54263;SDS011;40178;53.042;6.406;2023-05-08T06:52:23;12.40;;;8.77;;
54263;SDS011;40178;53.042;6.406;2023-05-08T06:54:49;11.68;;;8.48;;
54263;SDS011;40178;53.042;6.406;2023-05-08T06:57:15;13.00;;;8.68;;
54263;SDS011;40178;53.042;6.406;2023-05-08T06:59:41;10.88;;;8.38;;
54263;SDS011;40178;53.042;6.406;2023-05-08T07:02:07;13.85;;;9.65;;
54263;SDS011;40178;53.042;6.406;2023-05-08T07:04:34;13.35;;;9.00;;
54263;SDS011;40178;53.042;6.406;2023-05-08T07:07:00;12.07;;;8.88;;
54263;SDS011;40178;53.042;6.406;2023-05-08T07:09:26;11.75;;;9.13;;
54263;SDS011;40178;53.042;6.406;2023-05-08T07:11:51;11.23;;;8.45;;
54263;SDS011;40178;53.042;6.406;2023-05-08T07:14:17;13.38;;;9.23;;
54263;SDS011;40178;53.042;6.406;2023-05-08T07:16:43;11.57;;;8.32;;
54263;SDS011;40178;53.042;6.406;2023-05-08T07:19:08;11.57;;;8.52;;
54263;SDS011;40178;53.042;6.406;2023-05-08T07:21:34;13.13;;;8.65;;
54263;SDS011;40178;53.042;6.406;2023-05-08T07:24:00;12.45;;;8.30;;
54263;SDS011;40178;53.042;6.406;2023-05-08T07:26:25;11.55;;;8.50;;
54263;SDS011;40178;53.042;6.406;2023-05-08T07:28:51;11.85;;;8.35;;
54263;SDS011;40178;53.042;6.406;2023-05-08T07:31:18;11.98;;;8.50;;
54263;SDS011;40178;53.042;6.406;2023-05-08T07:33:44;13.35;;;8.93;;
54263;SDS011;40178;53.042;6.406;2023-05-08T07:36:11;11.35;;;8.57;;
54263;SDS011;40178;53.042;6.406;2023-05-08T07:38:37;12.52;;;8.70;;
54263;SDS011;40178;53.042;6.406;2023-05-08T07:41:02;11.70;;;9.07;;
54263;SDS011;40178;53.042;6.406;2023-05-08T07:43:29;11.88;;;8.43;;
54263;SDS011;40178;53.042;6.406;2023-05-08T07:45:56;12.55;;;9.18;;
54263;SDS011;40178;53.042;6.406;2023-05-08T07:48:22;10.70;;;8.18;;
54263;SDS011;40178;53.042;6.406;2023-05-08T07:50:48;12.75;;;9.02;;
54263;SDS011;40178;53.042;6.406;2023-05-08T07:53:14;11.40;;;8.48;;
54263;SDS011;40178;53.042;6.406;2023-05-08T07:55:40;11.70;;;8.55;;
54263;SDS011;40178;53.042;6.406;2023-05-08T07:58:06;12.48;;;8.70;;
54263;SDS011;40178;53.042;6.406;2023-05-08T08:00:31;12.05;;;8.73;;
54263;SDS011;40178;53.042;6.406;2023-05-08T08:02:57;11.25;;;8.65;;
54263;SDS011;40178;53.042;6.406;2023-05-08T08:05:23;11.93;;;8.52;;
54263;SDS011;40178;53.042;6.406;2023-05-08T08:07:48;14.48;;;8.73;;
54263;SDS011;40178;53.042;6.406;2023-05-08T08:10:14;11.77;;;9.10;;
54263;SDS011;40178;53.042;6.406;2023-05-08T08:12:40;10.95;;;8.27;;
54263;SDS011;40178;53.042;6.406;2023-05-08T08:15:05;13.07;;;9.43;;
54263;SDS011;40178;53.042;6.406;2023-05-08T08:17:31;12.07;;;8.75;;
54263;SDS011;40178;53.042;6.406;2023-05-08T08:19:57;10.82;;;8.40;;
54263;SDS011;40178;53.042;6.406;2023-05-08T08:22:23;12.45;;;9.23;;
54263;SDS011;40178;53.042;6.406;2023-05-08T08:24:49;11.68;;;8.63;;
54263;SDS011;40178;53.042;6.406;2023-05-08T08:27:15;13.43;;;9.05;;
54263;SDS011;40178;53.042;6.406;2023-05-08T08:29:40;12.18;;;8.40;;
54263;SDS011;40178;53.042;6.406;2023-05-08T08:32:06;11.77;;;8.85;;
54263;SDS011;40178;53.042;6.406;2023-05-08T08:34:32;17.33;;;9.68;;
54263;SDS011;40178;53.042;6.406;2023-05-08T08:36:58;13.93;;;9.70;;
54263;SDS011;40178;53.042;6.406;2023-05-08T08:39:24;11.93;;;9.02;;
54263;SDS011;40178;53.042;6.406;2023-05-08T08:41:49;13.07;;;9.10;;
54263;SDS011;40178;53.042;6.406;2023-05-08T08:44:15;12.10;;;8.60;;
54263;SDS011;40178;53.042;6.406;2023-05-08T08:46:43;12.18;;;9.10;;
54263;SDS011;40178;53.042;6.406;2023-05-08T08:49:22;14.07;;;9.45;;
54263;SDS011;40178;53.042;6.406;2023-05-08T08:51:51;17.23;;;13.48;;
54263;SDS011;40178;53.042;6.406;2023-05-08T08:54:20;13.23;;;9.73;;
54263;SDS011;40178;53.042;6.406;2023-05-08T08:56:48;12.77;;;9.63;;
54263;SDS011;40178;53.042;6.406;2023-05-08T08:59:16;12.32;;;9.15;;
54263;SDS011;40178;53.042;6.406;2023-05-08T09:01:46;15.35;;;9.70;;
54263;SDS011;40178;53.042;6.406;2023-05-08T09:04:15;12.40;;;9.05;;
54263;SDS011;40178;53.042;6.406;2023-05-08T09:06:41;10.82;;;8.85;;
54263;SDS011;40178;53.042;6.406;2023-05-08T09:09:06;15.27;;;9.95;;
54263;SDS011;40178;53.042;6.406;2023-05-08T09:11:32;13.30;;;9.23;;
54263;SDS011;40178;53.042;6.406;2023-05-08T09:14:00;12.30;;;8.90;;
54263;SDS011;40178;53.042;6.406;2023-05-08T09:16:26;12.30;;;9.18;;
54263;SDS011;40178;53.042;6.406;2023-05-08T09:18:52;13.23;;;9.77;;
54263;SDS011;40178;53.042;6.406;2023-05-08T09:21:18;13.52;;;10.40;;
54263;SDS011;40178;53.042;6.406;2023-05-08T09:23:56;11.60;;;8.82;;
54263;SDS011;40178;53.042;6.406;2023-05-08T09:26:26;12.60;;;9.25;;
54263;SDS011;40178;53.042;6.406;2023-05-08T09:31:38;12.43;;;9.18;;
54263;SDS011;40178;53.042;6.406;2023-05-08T09:34:06;11.45;;;9.18;;
54263;SDS011;40178;53.042;6.406;2023-05-08T09:36:33;12.45;;;8.88;;
54263;SDS011;40178;53.042;6.406;2023-05-08T09:38:59;14.32;;;9.73;;
54263;SDS011;40178;53.042;6.406;2023-05-08T09:41:25;12.98;;;9.77;;
54263;SDS011;40178;53.042;6.406;2023-05-08T09:44:05;14.10;;;10.48;;
54263;SDS011;40178;53.042;6.406;2023-05-08T09:46:33;12.80;;;9.43;;
54263;SDS011;40178;53.042;6.406;2023-05-08T09:49:00;11.95;;;9.68;;
54263;SDS011;40178;53.042;6.406;2023-05-08T09:51:27;11.70;;;9.48;;
54263;SDS011;40178;53.042;6.406;2023-05-08T09:53:55;12.50;;;10.35;;
54263;SDS011;40178;53.042;6.406;2023-05-08T09:56:32;11.98;;;9.75;;
54263;SDS011;40178;53.042;6.406;2023-05-08T09:59:03;13.70;;;9.30;;
54263;SDS011;40178;53.042;6.406;2023-05-08T10:01:31;13.88;;;9.70;;
54263;SDS011;40178;53.042;6.406;2023-05-08T10:04:00;12.93;;;9.98;;
54263;SDS011;40178;53.042;6.406;2023-05-08T10:06:27;13.75;;;10.23;;
54263;SDS011;40178;53.042;6.406;2023-05-08T10:11:32;12.65;;;9.90;;
54263;SDS011;40178;53.042;6.406;2023-05-08T10:13:58;12.13;;;9.38;;
54263;SDS011;40178;53.042;6.406;2023-05-08T10:16:23;13.10;;;9.55;;
54263;SDS011;40178;53.042;6.406;2023-05-08T10:18:53;13.93;;;10.25;;
54263;SDS011;40178;53.042;6.406;2023-05-08T10:21:24;13.18;;;9.77;;
54263;SDS011;40178;53.042;6.406;2023-05-08T10:23:53;14.55;;;11.27;;
54263;SDS011;40178;53.042;6.406;2023-05-08T10:26:24;15.02;;;10.27;;
54263;SDS011;40178;53.042;6.406;2023-05-08T10:29:03;16.13;;;10.65;;
54263;SDS011;40178;53.042;6.406;2023-05-08T10:31:35;14.57;;;10.55;;
54263;SDS011;40178;53.042;6.406;2023-05-08T10:34:05;14.13;;;10.45;;
54263;SDS011;40178;53.042;6.406;2023-05-08T10:36:32;14.65;;;11.43;;
54263;SDS011;40178;53.042;6.406;2023-05-08T10:39:00;13.82;;;10.63;;
54263;SDS011;40178;53.042;6.406;2023-05-08T10:41:26;14.27;;;11.30;;
54263;SDS011;40178;53.042;6.406;2023-05-08T10:43:53;12.77;;;10.70;;
54263;SDS011;40178;53.042;6.406;2023-05-08T10:46:39;14.18;;;10.10;;
54263;SDS011;40178;53.042;6.406;2023-05-08T10:49:20;13.40;;;10.20;;
54263;SDS011;40178;53.042;6.406;2023-05-08T10:54:47;13.65;;;10.57;;
54263;SDS011;40178;53.042;6.406;2023-05-08T10:57:15;14.07;;;10.82;;
54263;SDS011;40178;53.042;6.406;2023-05-08T10:59:44;14.20;;;10.30;;
54263;SDS011;40178;53.042;6.406;2023-05-08T11:02:11;14.02;;;10.75;;
54263;SDS011;40178;53.042;6.406;2023-05-08T11:04:37;14.40;;;10.25;;
54263;SDS011;40178;53.042;6.406;2023-05-08T11:07:03;13.70;;;9.98;;
54263;SDS011;40178;53.042;6.406;2023-05-08T11:09:30;13.43;;;10.40;;
54263;SDS011;40178;53.042;6.406;2023-05-08T11:15:03;15.07;;;10.48;;
54263;SDS011;40178;53.042;6.406;2023-05-08T11:17:30;12.77;;;9.38;;
54263;SDS011;40178;53.042;6.406;2023-05-08T11:19:57;13.88;;;8.98;;
54263;SDS011;40178;53.042;6.406;2023-05-08T11:22:28;12.88;;;9.55;;
54263;SDS011;40178;53.042;6.406;2023-05-08T11:35:47;12.65;;;9.63;;
54263;SDS011;40178;53.042;6.406;2023-05-08T11:40:47;14.10;;;10.20;;
54263;SDS011;40178;53.042;6.406;2023-05-08T11:43:24;14.02;;;10.95;;
54263;SDS011;40178;53.042;6.406;2023-05-08T11:45:59;14.82;;;10.70;;
54263;SDS011;40178;53.042;6.406;2023-05-08T11:48:26;15.48;;;11.15;;
54263;SDS011;40178;53.042;6.406;2023-05-08T11:50:51;14.07;;;10.40;;
54263;SDS011;40178;53.042;6.406;2023-05-08T11:53:17;14.32;;;10.27;;
54263;SDS011;40178;53.042;6.406;2023-05-08T11:55:46;13.55;;;10.52;;
54263;SDS011;40178;53.042;6.406;2023-05-08T11:58:21;13.90;;;9.95;;
54263;SDS011;40178;53.042;6.406;2023-05-08T12:00:47;15.80;;;10.27;;
54263;SDS011;40178;53.042;6.406;2023-05-08T12:03:14;15.32;;;10.07;;
54263;SDS011;40178;53.042;6.406;2023-05-08T12:05:41;20.13;;;11.05;;
54263;SDS011;40178;53.042;6.406;2023-05-08T12:08:07;19.17;;;11.00;;
54263;SDS011;40178;53.042;6.406;2023-05-08T12:13:19;13.75;;;10.30;;
54263;SDS011;40178;53.042;6.406;2023-05-08T12:15:47;14.13;;;10.57;;
54263;SDS011;40178;53.042;6.406;2023-05-08T12:18:14;14.90;;;11.02;;
54263;SDS011;40178;53.042;6.406;2023-05-08T12:20:41;16.27;;;10.88;;
54263;SDS011;40178;53.042;6.406;2023-05-08T12:23:07;16.20;;;11.98;;
54263;SDS011;40178;53.042;6.406;2023-05-08T12:25:35;15.90;;;11.18;;
54263;SDS011;40178;53.042;6.406;2023-05-08T12:28:02;15.15;;;11.13;;
54263;SDS011;40178;53.042;6.406;2023-05-08T12:30:28;14.35;;;10.93;;
54263;SDS011;40178;53.042;6.406;2023-05-08T12:32:53;14.55;;;10.77;;
54263;SDS011;40178;53.042;6.406;2023-05-08T12:35:20;14.68;;;10.80;;
54263;SDS011;40178;53.042;6.406;2023-05-08T12:37:46;17.63;;;10.75;;
54263;SDS011;40178;53.042;6.406;2023-05-08T12:40:25;17.85;;;12.77;;
54263;SDS011;40178;53.042;6.406;2023-05-08T12:42:52;16.88;;;12.10;;
54263;SDS011;40178;53.042;6.406;2023-05-08T12:45:25;16.45;;;13.07;;
54263;SDS011;40178;53.042;6.406;2023-05-08T12:47:53;16.42;;;12.15;;
54263;SDS011;40178;53.042;6.406;2023-05-08T12:50:24;15.43;;;11.77;;
54263;SDS011;40178;53.042;6.406;2023-05-08T12:52:50;18.13;;;13.25;;
54263;SDS011;40178;53.042;6.406;2023-05-08T12:55:19;22.02;;;12.25;;
54263;SDS011;40178;53.042;6.406;2023-05-08T12:57:49;19.02;;;11.93;;
54263;SDS011;40178;53.042;6.406;2023-05-08T13:00:22;16.13;;;11.82;;
54263;SDS011;40178;53.042;6.406;2023-05-08T13:02:52;14.48;;;11.23;;
54263;SDS011;40178;53.042;6.406;2023-05-08T13:05:22;16.35;;;12.15;;
54263;SDS011;40178;53.042;6.406;2023-05-08T13:07:51;15.82;;;11.93;;
54263;SDS011;40178;53.042;6.406;2023-05-08T13:10:17;17.00;;;11.20;;
54263;SDS011;40178;53.042;6.406;2023-05-08T13:12:43;15.13;;;11.18;;
54263;SDS011;40178;53.042;6.406;2023-05-08T13:15:10;14.93;;;10.70;;
54263;SDS011;40178;53.042;6.406;2023-05-08T13:17:35;14.98;;;11.60;;
54263;SDS011;40178;53.042;6.406;2023-05-08T13:20:01;14.88;;;10.63;;
54263;SDS011;40178;53.042;6.406;2023-05-08T13:22:28;14.75;;;9.93;;
54263;SDS011;40178;53.042;6.406;2023-05-08T13:24:54;12.82;;;9.73;;
54263;SDS011;40178;53.042;6.406;2023-05-08T13:27:20;14.68;;;10.45;;
54263;SDS011;40178;53.042;6.406;2023-05-08T13:29:46;13.25;;;10.18;;
54263;SDS011;40178;53.042;6.406;2023-05-08T13:32:11;13.82;;;10.02;;
54263;SDS011;40178;53.042;6.406;2023-05-08T13:34:37;11.85;;;9.60;;
54263;SDS011;40178;53.042;6.406;2023-05-08T13:37:02;12.15;;;8.80;;
54263;SDS011;40178;53.042;6.406;2023-05-08T13:39:28;10.93;;;8.10;;
54263;SDS011;40178;53.042;6.406;2023-05-08T13:41:56;12.02;;;8.15;;
54263;SDS011;40178;53.042;6.406;2023-05-08T13:44:22;13.63;;;8.65;;
54263;SDS011;40178;53.042;6.406;2023-05-08T13:46:48;12.65;;;9.30;;
54263;SDS011;40178;53.042;6.406;2023-05-08T13:49:14;13.55;;;10.10;;
54263;SDS011;40178;53.042;6.406;2023-05-08T13:51:39;14.85;;;9.73;;
54263;SDS011;40178;53.042;6.406;2023-05-08T13:54:05;13.80;;;9.20;;
54263;SDS011;40178;53.042;6.406;2023-05-08T13:56:30;15.30;;;9.05;;
54263;SDS011;40178;53.042;6.406;2023-05-08T13:58:59;13.57;;;9.55;;
54263;SDS011;40178;53.042;6.406;2023-05-08T14:01:27;15.23;;;9.82;;
54263;SDS011;40178;53.042;6.406;2023-05-08T14:03:53;10.70;;;8.90;;
54263;SDS011;40178;53.042;6.406;2023-05-08T14:06:19;12.05;;;8.70;;
54263;SDS011;40178;53.042;6.406;2023-05-08T14:08:45;15.10;;;10.80;;
54263;SDS011;40178;53.042;6.406;2023-05-08T14:11:11;12.35;;;9.52;;
54263;SDS011;40178;53.042;6.406;2023-05-08T14:13:37;10.88;;;8.50;;
54263;SDS011;40178;53.042;6.406;2023-05-08T14:16:03;10.55;;;8.15;;
54263;SDS011;40178;53.042;6.406;2023-05-08T14:18:32;12.30;;;9.30;;
54263;SDS011;40178;53.042;6.406;2023-05-08T14:20:57;12.77;;;9.50;;
54263;SDS011;40178;53.042;6.406;2023-05-08T14:23:23;12.05;;;9.60;;
54263;SDS011;40178;53.042;6.406;2023-05-08T14:25:48;12.75;;;9.60;;
54263;SDS011;40178;53.042;6.406;2023-05-08T14:28:14;11.90;;;9.57;;
54263;SDS011;40178;53.042;6.406;2023-05-08T14:30:40;11.82;;;8.75;;
54263;SDS011;40178;53.042;6.406;2023-05-08T14:33:05;10.95;;;8.43;;
54263;SDS011;40178;53.042;6.406;2023-05-08T14:35:31;12.48;;;9.55;;
54263;SDS011;40178;53.042;6.406;2023-05-08T14:37:57;13.02;;;9.73;;
54263;SDS011;40178;53.042;6.406;2023-05-08T14:40:22;11.50;;;8.20;;
54263;SDS011;40178;53.042;6.406;2023-05-08T14:42:48;10.93;;;8.52;;
54263;SDS011;40178;53.042;6.406;2023-05-08T14:45:13;12.02;;;8.85;;
54263;SDS011;40178;53.042;6.406;2023-05-08T14:47:39;12.07;;;9.40;;
54263;SDS011;40178;53.042;6.406;2023-05-08T14:50:09;12.60;;;8.93;;
54263;SDS011;40178;53.042;6.406;2023-05-08T14:52:35;11.20;;;8.90;;
54263;SDS011;40178;53.042;6.406;2023-05-08T14:55:00;15.68;;;10.18;;
54263;SDS011;40178;53.042;6.406;2023-05-08T14:57:26;12.60;;;9.52;;
54263;SDS011;40178;53.042;6.406;2023-05-08T14:59:52;12.52;;;10.40;;
54263;SDS011;40178;53.042;6.406;2023-05-08T15:02:19;12.85;;;10.35;;
54263;SDS011;40178;53.042;6.406;2023-05-08T15:04:45;12.57;;;10.25;;
54263;SDS011;40178;53.042;6.406;2023-05-08T15:07:10;11.25;;;8.68;;
54263;SDS011;40178;53.042;6.406;2023-05-08T15:09:36;12.38;;;10.15;;
54263;SDS011;40178;53.042;6.406;2023-05-08T15:12:02;11.88;;;8.80;;
54263;SDS011;40178;53.042;6.406;2023-05-08T15:14:27;13.70;;;10.20;;
54263;SDS011;40178;53.042;6.406;2023-05-08T15:16:53;12.00;;;8.88;;
54263;SDS011;40178;53.042;6.406;2023-05-08T15:19:19;14.77;;;12.38;;